createdAt,value
2018-11-21T00:03:41.858Z,26.30
2018-11-21T00:08:45.361Z,27.20
2018-11-21T00:13:48.927Z,27.17
2018-11-21T00:18:52.399Z,29.63
2018-11-21T00:23:55.922Z,28.70
2018-11-21T00:28:59.373Z,27.67
2018-11-21T00:34:02.862Z,28.63
2018-11-21T00:39:09.797Z,26.27
2018-11-21T00:44:13.132Z,27.53
2018-11-21T00:49:16.613Z,29.70
2018-11-21T00:54:19.772Z,25.93
2018-11-21T00:59:23.249Z,30.27
2018-11-21T01:04:26.979Z,31.30
2018-11-21T01:09:30.662Z,31.00
2018-11-21T01:14:34.554Z,28.33
2018-11-21T01:19:38.028Z,31.17
2018-11-21T01:24:41.239Z,29.77
2018-11-21T01:29:44.983Z,29.70
2018-11-21T01:34:48.531Z,28.40
2018-11-21T01:39:52.025Z,30.90
2018-11-21T01:44:55.283Z,30.23
2018-11-21T01:49:58.528Z,25.43
2018-11-21T01:55:02.924Z,29.03
2018-11-21T02:00:08.523Z,28.63
2018-11-21T02:05:12.320Z,34.53
2018-11-21T02:10:15.747Z,29.20
2018-11-21T02:15:19.508Z,30.73
2018-11-21T02:20:22.662Z,28.77
2018-11-21T02:25:26.170Z,28.40
2018-11-21T02:30:29.329Z,32.03
2018-11-21T02:35:32.591Z,29.57
2018-11-21T02:40:35.746Z,28.20
2018-11-21T02:45:39.237Z,27.97
2018-11-21T02:50:42.686Z,28.40
2018-11-21T02:55:45.840Z,29.07
2018-11-21T03:00:49.030Z,26.53
2018-11-21T03:05:52.562Z,28.67
2018-11-21T03:10:55.746Z,29.53
2018-11-21T03:15:59.222Z,30.47
2018-11-21T03:21:02.378Z,28.57
2018-11-21T03:26:05.734Z,24.77
2018-11-21T03:31:09.198Z,28.97
2018-11-21T03:36:12.649Z,27.53
2018-11-21T03:41:15.806Z,27.97
2018-11-21T03:46:19.002Z,27.60
2018-11-21T03:51:22.187Z,29.00
2018-11-21T03:56:25.899Z,27.30
2018-11-21T04:01:29.320Z,25.03
2018-11-21T04:06:32.760Z,27.37
2018-11-21T04:11:36.878Z,22.77
2018-11-21T04:16:40.066Z,26.40
2018-11-21T04:21:43.824Z,26.03
2018-11-21T04:26:47.354Z,25.20
2018-11-21T04:31:50.506Z,26.47
2018-11-21T04:36:53.659Z,26.33
2018-11-21T04:41:56.809Z,27.87
2018-11-21T04:46:59.969Z,25.27
2018-11-21T04:52:03.455Z,27.83
2018-11-21T04:57:06.964Z,26.93
2018-11-21T05:02:10.235Z,28.53
2018-11-21T05:07:13.663Z,27.63
2018-11-21T05:12:17.100Z,27.53
2018-11-21T05:17:20.840Z,28.70
2018-11-21T05:22:23.993Z,27.43
2018-11-21T05:27:27.834Z,28.30
2018-11-21T05:32:31.517Z,29.80
2018-11-21T05:37:35.319Z,30.47
2018-11-21T05:42:38.571Z,28.47
2018-11-21T05:47:42.112Z,28.30
2018-11-21T05:52:45.609Z,31.50
2018-11-21T05:57:49.130Z,29.77
2018-11-21T06:02:52.576Z,29.30
2018-11-21T06:07:56.271Z,30.10
2018-11-21T06:12:59.807Z,29.27
2018-11-21T06:18:03.399Z,28.40
2018-11-21T06:23:06.552Z,29.00
2018-11-21T06:28:09.740Z,28.30
2018-11-21T06:33:12.898Z,30.43
2018-11-21T06:38:16.055Z,29.43
2018-11-21T06:43:19.260Z,30.67
2018-11-21T06:48:22.756Z,30.13
2018-11-21T06:53:26.221Z,29.77
2018-11-21T06:58:29.684Z,29.23
2018-11-21T07:03:33.198Z,30.10
2018-11-21T07:08:36.380Z,28.03
2018-11-21T07:13:40.121Z,30.87
2018-11-21T07:18:44.026Z,30.07
2018-11-21T07:23:49.847Z,30.03
2018-11-21T07:28:53.433Z,29.83
2018-11-21T07:33:56.598Z,28.60
2018-11-21T07:39:00.034Z,30.07
2018-11-21T07:44:03.270Z,28.33
2018-11-21T07:49:06.672Z,28.80
2018-11-21T07:54:10.206Z,28.97
2018-11-21T07:59:13.817Z,31.90
2018-11-21T08:04:31.336Z,31.03
2018-11-21T08:10:01.876Z,30.10
2018-11-21T08:15:24.549Z,31.30
2018-11-21T08:20:45.663Z,29.13
2018-11-21T08:25:57.239Z,28.33
2018-11-21T08:31:00.518Z,29.23
2018-11-21T08:36:03.710Z,33.07
2018-11-21T08:41:06.879Z,27.17
2018-11-21T08:46:11.018Z,29.57
2018-11-21T08:51:14.492Z,33.20
2018-11-21T08:56:17.863Z,31.37
2018-11-21T09:01:21.181Z,31.40
2018-11-21T09:06:24.615Z,33.53
2018-11-21T09:11:27.953Z,30.23
2018-11-21T09:16:32.126Z,29.20
2018-11-21T09:21:35.570Z,31.60
2018-11-21T09:26:39.032Z,29.40
2018-11-21T09:31:42.174Z,28.53
2018-11-21T09:36:45.654Z,30.33
2018-11-21T09:41:49.362Z,27.20
2018-11-21T09:46:52.558Z,27.53
2018-11-21T09:51:56.650Z,28.83
2018-11-21T09:57:00.336Z,26.20
2018-11-21T10:02:39.918Z,26.73
2018-11-21T10:07:50.692Z,25.07
2018-11-21T10:12:54.460Z,24.47
2018-11-21T10:17:57.869Z,26.40
2018-11-21T10:23:01.039Z,25.40
2018-11-21T10:28:04.199Z,22.97
2018-11-21T10:33:07.342Z,25.67
2018-11-21T10:38:10.782Z,23.67
2018-11-21T10:43:13.927Z,22.37
2018-11-21T10:48:17.505Z,24.83
2018-11-21T10:53:20.933Z,24.53
2018-11-21T10:58:24.095Z,22.47
2018-11-21T11:03:29.836Z,21.90
2018-11-21T11:08:50.984Z,20.47
2018-11-21T11:14:14.061Z,21.30
2018-11-21T11:19:34.915Z,17.90
2018-11-21T11:25:03.420Z,20.40
2018-11-21T11:30:35.153Z,18.17
2018-11-21T11:36:07.840Z,16.03
2018-11-21T11:41:28.969Z,19.53
2018-11-21T11:46:50.662Z,18.67
2018-11-21T11:52:16.403Z,15.33
2018-11-21T11:57:44.834Z,17.30
2018-11-21T12:03:13.399Z,17.80
2018-11-21T12:08:32.743Z,20.07
2018-11-21T12:14:13.338Z,19.30
2018-11-21T12:19:31.691Z,16.07
2018-11-21T12:25:03.438Z,17.07
2018-11-21T12:30:17.549Z,17.83
2018-11-21T12:35:38.300Z,19.40
2018-11-21T12:41:00.510Z,19.07
2018-11-21T12:46:37.842Z,21.87
2018-11-21T12:51:58.833Z,22.13
2018-11-21T12:57:23.785Z,21.83
2018-11-21T13:02:45.119Z,17.47
2018-11-21T13:08:19.448Z,18.43
2018-11-21T13:13:40.904Z,20.60
2018-11-21T13:19:06.551Z,18.93
2018-11-21T13:24:28.176Z,19.40
2018-11-21T13:30:05.834Z,18.37
2018-11-21T13:35:31.677Z,18.80
2018-11-21T13:40:56.090Z,17.70
2018-11-21T13:46:30.342Z,18.30
2018-11-21T13:51:53.082Z,16.67
2018-11-21T13:56:56.320Z,17.73
2018-11-21T14:02:00.576Z,18.23
2018-11-21T14:07:04.042Z,17.43
2018-11-21T14:12:07.654Z,20.50
2018-11-21T14:17:11.954Z,17.77
2018-11-21T14:22:14.574Z,17.90
2018-11-21T14:27:18.146Z,16.13
2018-11-21T14:32:21.631Z,17.87
2018-11-21T14:37:25.052Z,17.83
2018-11-21T14:42:29.381Z,16.67
2018-11-21T14:47:32.696Z,17.30
2018-11-21T14:52:36.450Z,15.83
2018-11-21T14:57:40.320Z,15.93
2018-11-21T15:02:43.986Z,13.80
2018-11-21T15:07:48.677Z,15.23
2018-11-21T15:12:52.280Z,17.00
2018-11-21T15:17:56.004Z,18.80
2018-11-21T15:22:59.505Z,15.63
2018-11-21T15:28:04.215Z,15.07
2018-11-21T15:33:07.506Z,15.17
2018-11-21T15:38:11.043Z,16.97
2018-11-21T15:43:14.673Z,17.30
2018-11-21T15:48:18.231Z,17.83
2018-11-21T15:53:21.504Z,14.07
2018-11-21T15:58:24.990Z,16.60
2018-11-21T16:03:28.789Z,15.30
2018-11-21T16:08:32.014Z,14.93
2018-11-21T16:13:35.433Z,17.43
2018-11-21T16:18:38.879Z,18.93
2018-11-21T16:23:42.766Z,15.53
2018-11-21T16:28:45.943Z,16.90
2018-11-21T16:33:49.968Z,15.90
2018-11-21T16:38:53.468Z,16.93
2018-11-21T16:43:57.084Z,17.40
2018-11-21T16:49:01.056Z,16.00
2018-11-21T16:54:04.236Z,17.30
2018-11-21T16:59:07.769Z,18.23
2018-11-21T17:04:11.370Z,19.10
2018-11-21T17:09:15.230Z,18.17
2018-11-21T17:14:18.659Z,18.03
2018-11-21T17:19:22.182Z,16.63
2018-11-21T17:24:25.326Z,16.90
2018-11-21T17:29:29.012Z,16.20
2018-11-21T17:34:32.178Z,16.87
2018-11-21T17:39:35.678Z,17.10
2018-11-21T17:44:39.361Z,19.37
2018-11-21T17:49:42.528Z,18.07
2018-11-21T17:54:46.127Z,16.50
2018-11-21T17:59:49.235Z,16.63
2018-11-21T18:04:53.079Z,18.23
2018-11-21T18:09:56.597Z,15.87
2018-11-21T18:15:00.076Z,16.50
2018-11-21T18:20:03.501Z,17.67
2018-11-21T18:25:08.918Z,20.10
2018-11-21T18:30:15.469Z,18.00
2018-11-21T18:35:20.214Z,15.03
2018-11-21T18:40:25.409Z,18.70
2018-11-21T18:45:31.929Z,25.80
2018-11-21T18:50:35.951Z,22.00
2018-11-21T18:55:41.526Z,21.73
2018-11-21T19:00:47.180Z,18.17
2018-11-21T19:05:50.644Z,18.57
2018-11-21T19:10:54.283Z,18.80
2018-11-21T19:15:57.484Z,19.50
2018-11-21T19:21:00.938Z,20.63
2018-11-21T19:26:04.444Z,35.40
2018-11-21T19:31:08.823Z,23.60
2018-11-21T19:36:12.753Z,28.80
2018-11-21T19:41:16.219Z,26.37
2018-11-21T19:46:19.351Z,23.73
2018-11-21T19:51:23.090Z,19.73
2018-11-21T19:56:26.659Z,22.67
2018-11-21T20:01:30.150Z,21.57
2018-11-21T20:06:33.550Z,30.60
2018-11-21T20:11:37.363Z,32.03
2018-11-21T20:16:40.923Z,33.83
2018-11-21T20:21:44.363Z,33.00
2018-11-21T20:26:48.056Z,35.67
2018-11-21T20:31:51.215Z,37.60
2018-11-21T20:36:54.909Z,35.97
2018-11-21T20:41:59.061Z,37.80
2018-11-21T20:47:02.468Z,36.00
2018-11-21T20:52:05.952Z,39.73
2018-11-21T20:57:09.129Z,41.20
2018-11-21T21:02:12.371Z,37.50
2018-11-21T21:07:18.560Z,40.47
2018-11-21T21:12:19.234Z,41.70
2018-11-21T21:17:22.689Z,39.03
2018-11-21T21:22:26.204Z,37.57
2018-11-21T21:27:29.614Z,41.20
2018-11-21T21:32:33.030Z,37.87
2018-11-21T21:37:36.838Z,35.57
2018-11-21T21:42:40.680Z,36.03
2018-11-21T21:47:44.527Z,40.17
2018-11-21T21:52:47.973Z,38.20
2018-11-21T21:57:51.683Z,40.83
2018-11-21T22:02:55.810Z,40.77
2018-11-21T22:07:59.317Z,39.97
2018-11-21T22:13:03.180Z,39.47
2018-11-21T22:18:08.098Z,41.67
2018-11-21T22:23:11.669Z,39.97
2018-11-21T22:28:15.154Z,39.70
2018-11-21T22:33:18.352Z,39.87
2018-11-21T22:38:21.814Z,38.93
2018-11-21T22:43:25.122Z,42.50
2018-11-21T22:48:28.662Z,45.33
2018-11-21T22:53:32.234Z,39.47
2018-11-21T22:58:35.839Z,40.53
2018-11-21T23:03:39.004Z,42.00
2018-11-21T23:08:42.756Z,38.70
2018-11-21T23:13:46.118Z,41.77
2018-11-21T23:18:49.669Z,39.17
2018-11-21T23:23:52.906Z,39.00
2018-11-21T23:28:56.410Z,39.67
2018-11-21T23:33:59.975Z,40.00
2018-11-21T23:39:03.454Z,39.33
2018-11-21T23:44:06.652Z,36.07
2018-11-21T23:49:10.165Z,35.83
2018-11-21T23:54:13.667Z,41.63
2018-11-21T23:59:17.069Z,37.87
